createdAt,value
2018-10-16T00:02:13.212Z,7.73
2018-10-16T00:07:35.225Z,6.87
2018-10-16T00:12:57.370Z,7.00
2018-10-16T00:18:19.155Z,8.50
2018-10-16T00:23:41.283Z,7.77
2018-10-16T00:29:02.938Z,6.70
2018-10-16T00:34:25.276Z,7.27
2018-10-16T00:39:47.425Z,6.63
2018-10-16T00:45:10.982Z,6.97
2018-10-16T00:50:32.707Z,8.10
2018-10-16T00:55:54.856Z,7.57
2018-10-16T01:01:21.025Z,7.93
2018-10-16T01:06:43.480Z,8.13
2018-10-16T01:12:05.477Z,8.37
2018-10-16T01:17:27.194Z,8.60
2018-10-16T01:22:49.212Z,8.87
2018-10-16T01:28:10.998Z,9.00
2018-10-16T01:33:33.190Z,8.30
2018-10-16T01:38:54.995Z,6.33
2018-10-16T01:44:17.642Z,7.47
2018-10-16T01:49:39.916Z,6.83
2018-10-16T01:55:02.161Z,6.53
2018-10-16T02:00:24.051Z,7.37
2018-10-16T02:05:45.929Z,7.00
2018-10-16T02:11:08.187Z,6.83
2018-10-16T02:16:30.177Z,4.77
2018-10-16T02:21:52.225Z,5.63
2018-10-16T02:27:14.395Z,6.70
2018-10-16T02:32:36.834Z,4.60
2018-10-16T02:37:59.185Z,2.70
2018-10-16T02:43:21.115Z,5.37
2018-10-16T02:48:43.519Z,3.87
2018-10-16T02:54:05.490Z,4.03
2018-10-16T02:59:27.744Z,3.50
2018-10-16T03:04:49.534Z,5.13
2018-10-16T03:10:11.491Z,4.33
2018-10-16T03:15:33.399Z,5.53
2018-10-16T03:20:55.698Z,5.40
2018-10-16T03:26:17.477Z,5.50
2018-10-16T03:31:40.015Z,4.77
2018-10-16T03:37:02.309Z,5.47
2018-10-16T03:42:24.154Z,5.20
2018-10-16T03:47:46.054Z,3.90
2018-10-16T03:53:08.518Z,5.53
2018-10-16T03:58:30.916Z,5.87
2018-10-16T04:03:52.714Z,6.27
2018-10-16T04:09:14.901Z,7.47
2018-10-16T04:14:36.813Z,7.13
2018-10-16T04:19:59.142Z,8.07
2018-10-16T04:25:21.338Z,8.63
2018-10-16T04:30:43.351Z,8.47
2018-10-16T04:36:05.322Z,8.53
2018-10-16T04:41:27.491Z,9.30
2018-10-16T04:46:49.362Z,11.60
2018-10-16T04:52:11.470Z,10.47
2018-10-16T04:57:33.385Z,10.80
2018-10-16T05:02:55.957Z,10.93
2018-10-16T05:08:17.843Z,11.33
2018-10-16T05:13:40.597Z,12.50
2018-10-16T05:19:02.836Z,11.47
2018-10-16T05:24:25.922Z,10.17
2018-10-16T05:29:47.787Z,13.57
2018-10-16T05:35:10.475Z,11.63
2018-10-16T05:40:33.105Z,11.33
2018-10-16T05:45:57.000Z,11.53
2018-10-16T05:51:18.822Z,11.03
2018-10-16T05:56:41.056Z,14.50
2018-10-16T06:02:03.423Z,12.07
2018-10-16T06:07:25.477Z,13.87
2018-10-16T06:12:47.282Z,12.07
2018-10-16T06:18:09.390Z,15.20
2018-10-16T06:23:31.270Z,13.10
2018-10-16T06:28:53.493Z,11.67
2018-10-16T06:34:17.781Z,10.37
2018-10-16T06:39:39.931Z,8.17
2018-10-16T06:45:02.087Z,8.17
2018-10-16T06:50:24.194Z,8.23
2018-10-16T06:55:46.224Z,6.93
2018-10-16T07:01:08.109Z,7.33
2018-10-16T07:06:30.578Z,8.67
2018-10-16T07:11:52.798Z,8.40
2018-10-16T07:17:14.596Z,8.37
2018-10-16T07:22:36.257Z,7.70
2018-10-16T07:27:58.339Z,8.43
2018-10-16T07:33:20.269Z,8.00
2018-10-16T07:38:42.620Z,7.63
2018-10-16T07:44:04.442Z,7.33
2018-10-16T07:49:26.629Z,6.80
2018-10-16T07:54:48.590Z,5.40
2018-10-16T08:00:12.370Z,5.97
2018-10-16T08:05:34.096Z,6.47
2018-10-16T08:10:58.278Z,6.20
2018-10-16T08:16:20.005Z,6.83
2018-10-16T08:21:42.088Z,6.40
2018-10-16T08:27:03.925Z,5.37
2018-10-16T08:32:26.234Z,6.83
2018-10-16T08:39:58.214Z,5.77
2018-10-16T08:45:30.395Z,4.40
2018-10-16T08:51:02.285Z,4.93
2018-10-16T08:56:24.586Z,4.30
2018-10-16T09:01:46.326Z,4.87
2018-10-16T09:07:10.158Z,6.77
2018-10-16T09:12:33.295Z,5.97
2018-10-16T09:17:55.267Z,6.97
2018-10-16T09:23:17.438Z,6.47
2018-10-16T09:28:40.929Z,6.10
2018-10-16T09:34:02.965Z,5.57
2018-10-16T09:39:24.806Z,5.37
2018-10-16T09:44:47.208Z,4.43
2018-10-16T09:50:10.518Z,3.90
2018-10-16T09:55:32.773Z,2.20
2018-10-16T10:00:59.685Z,2.00
2018-10-16T10:06:21.870Z,1.70
2018-10-16T10:11:44.073Z,1.53
2018-10-16T10:17:05.907Z,2.00
2018-10-16T10:22:29.355Z,2.17
2018-10-16T10:27:51.490Z,2.90
2018-10-16T10:33:13.680Z,3.20
2018-10-16T10:38:35.637Z,2.37
2018-10-16T10:43:58.092Z,1.73
2018-10-16T10:49:20.608Z,1.90
2018-10-16T10:54:43.056Z,1.57
2018-10-16T11:00:05.269Z,1.37
2018-10-16T11:05:27.345Z,1.87
2018-10-16T11:10:49.129Z,1.63
2018-10-16T11:16:11.413Z,1.67
2018-10-16T11:21:33.703Z,1.50
2018-10-16T11:26:55.869Z,0.90
2018-10-16T11:32:17.661Z,0.83
2018-10-16T11:37:39.830Z,0.90
2018-10-16T11:43:03.784Z,0.90
2018-10-16T11:48:25.809Z,0.90
2018-10-16T11:53:47.931Z,0.70
2018-10-16T11:59:10.480Z,0.50
2018-10-16T12:04:32.491Z,0.50
2018-10-16T12:09:54.310Z,0.70
2018-10-16T12:15:16.481Z,0.70
2018-10-16T12:20:43.122Z,0.50
2018-10-16T12:26:05.154Z,0.53
2018-10-16T12:31:26.996Z,0.50
2018-10-16T12:36:49.210Z,0.60
2018-10-16T12:42:11.009Z,0.63
2018-10-16T12:47:33.213Z,0.70
2018-10-16T12:52:55.060Z,0.60
2018-10-16T12:58:17.086Z,0.70
2018-10-16T13:03:39.114Z,0.93
2018-10-16T13:09:01.135Z,0.80
2018-10-16T13:14:22.817Z,0.80
2018-10-16T13:19:44.895Z,0.67
2018-10-16T13:25:07.694Z,0.87
2018-10-16T13:30:29.569Z,0.57
2018-10-16T13:35:51.797Z,0.50
2018-10-16T13:41:13.839Z,0.80
2018-10-16T13:46:36.009Z,0.80
2018-10-16T13:51:57.889Z,0.60
2018-10-16T13:57:20.334Z,0.90
2018-10-16T14:02:44.278Z,0.80
2018-10-16T14:08:06.557Z,0.80
2018-10-16T14:13:28.450Z,0.70
2018-10-16T14:18:50.120Z,0.63
2018-10-16T14:24:12.488Z,0.50
2018-10-16T14:29:34.757Z,0.70
2018-10-16T14:34:56.830Z,0.67
2018-10-16T14:40:18.697Z,0.50
2018-10-16T14:45:40.699Z,0.60
2018-10-16T14:51:02.633Z,1.13
2018-10-16T14:56:25.259Z,0.70
2018-10-16T15:01:48.184Z,0.90
2018-10-16T15:07:10.724Z,0.70
2018-10-16T15:12:34.833Z,0.60
2018-10-16T15:17:56.691Z,0.80
2018-10-16T15:23:19.278Z,0.73
2018-10-16T15:28:41.607Z,0.77
2018-10-16T15:34:04.164Z,0.77
2018-10-16T15:39:25.958Z,0.70
2018-10-16T15:44:49.026Z,0.60
2018-10-16T15:50:11.666Z,0.80
2018-10-16T15:55:33.650Z,0.80
2018-10-16T16:00:55.334Z,0.87
2018-10-16T16:06:17.836Z,0.70
2018-10-16T16:11:40.062Z,0.70
2018-10-16T16:17:01.987Z,0.87
2018-10-16T16:22:24.186Z,0.80
2018-10-16T16:27:46.130Z,0.90
2018-10-16T16:33:08.209Z,0.70
2018-10-16T16:38:30.827Z,0.80
2018-10-16T16:43:53.544Z,0.70
2018-10-16T16:49:16.300Z,0.80
2018-10-16T16:54:38.817Z,0.90
2018-10-16T17:00:01.367Z,0.80
2018-10-16T17:05:24.046Z,0.60
2018-10-16T17:10:46.250Z,0.90
2018-10-16T17:16:08.651Z,0.93
2018-10-16T17:21:31.268Z,0.90
2018-10-16T17:26:53.905Z,0.70
2018-10-16T17:32:16.070Z,0.90
2018-10-16T17:37:38.566Z,1.03
2018-10-16T17:43:01.156Z,1.03
2018-10-16T17:48:23.129Z,1.00
2018-10-16T17:53:47.307Z,0.90
2018-10-16T17:59:09.727Z,0.83
2018-10-16T18:04:32.326Z,0.87
2018-10-16T18:09:55.047Z,0.80
2018-10-16T18:15:17.733Z,1.03
2018-10-16T18:20:39.865Z,0.80
2018-10-16T18:26:02.776Z,1.00
2018-10-16T18:31:25.246Z,0.90
2018-10-16T18:36:47.666Z,0.80
2018-10-16T18:42:10.357Z,0.70
2018-10-16T18:47:32.876Z,1.13
2018-10-16T18:52:55.099Z,0.80
2018-10-16T18:58:17.882Z,0.93
2018-10-16T19:03:40.233Z,0.80
2018-10-16T19:09:03.830Z,1.07
2018-10-16T19:14:26.117Z,0.60
2018-10-16T19:19:48.820Z,0.93
2018-10-16T19:25:12.474Z,0.97
2018-10-16T19:30:35.368Z,1.30
2018-10-16T19:35:57.697Z,1.40
2018-10-16T19:41:20.107Z,1.43
2018-10-16T19:46:42.342Z,1.50
2018-10-16T19:52:04.757Z,1.80
2018-10-16T19:57:27.317Z,1.50
2018-10-16T20:02:50.914Z,1.80
2018-10-16T20:08:13.159Z,1.47
2018-10-16T20:13:35.709Z,1.70
2018-10-16T20:18:57.903Z,1.67
2018-10-16T20:24:20.253Z,2.00
2018-10-16T20:29:42.569Z,1.83
2018-10-16T20:35:04.714Z,1.70
2018-10-16T20:40:27.788Z,2.30
2018-10-16T20:45:49.929Z,1.77
2018-10-16T20:51:12.202Z,2.60
2018-10-16T20:56:34.673Z,2.47
2018-10-16T21:01:56.790Z,2.10
2018-10-16T21:07:19.167Z,2.50
2018-10-16T21:12:41.390Z,2.83
2018-10-16T21:18:03.180Z,2.63
2018-10-16T21:23:25.374Z,2.47
2018-10-16T21:28:47.381Z,2.50
2018-10-16T21:34:10.269Z,2.20
2018-10-16T21:39:33.119Z,2.40
2018-10-16T21:44:55.414Z,3.00
2018-10-16T21:50:17.284Z,2.60
2018-10-16T21:55:39.486Z,2.30
2018-10-16T22:01:06.210Z,2.47
2018-10-16T22:06:28.174Z,2.67
2018-10-16T22:11:50.486Z,3.10
2018-10-16T22:17:12.499Z,2.73
2018-10-16T22:22:34.158Z,3.40
2018-10-16T22:27:56.172Z,3.50
2018-10-16T22:33:19.322Z,4.07
2018-10-16T22:38:41.193Z,3.60
2018-10-16T22:44:03.533Z,3.73
2018-10-16T22:49:25.210Z,4.53
2018-10-16T22:54:47.497Z,3.57
2018-10-16T23:00:15.014Z,4.33
2018-10-16T23:05:36.901Z,4.07
2018-10-16T23:10:59.022Z,5.07
2018-10-16T23:16:20.890Z,5.47
2018-10-16T23:21:43.090Z,5.43
2018-10-16T23:27:04.983Z,5.37
2018-10-16T23:32:27.170Z,5.70
2018-10-16T23:37:49.194Z,4.87
2018-10-16T23:44:14.263Z,5.00
2018-10-16T23:49:36.254Z,4.53
2018-10-16T23:54:58.598Z,4.63
